createdAt,value
2022-12-29T00:00:14.375Z,4.96
2022-12-29T00:02:41.479Z,4.96
2022-12-29T00:05:08.771Z,4.94
2022-12-29T00:07:35.307Z,4.94
2022-12-29T00:10:01.892Z,4.93
2022-12-29T00:12:28.560Z,4.89
2022-12-29T00:14:55.103Z,4.87
2022-12-29T00:17:21.620Z,4.85
2022-12-29T00:19:48.165Z,4.83
2022-12-29T00:22:15.758Z,4.82
2022-12-29T00:24:42.523Z,4.79
2022-12-29T00:27:12.396Z,4.78
2022-12-29T00:29:39.028Z,4.78
2022-12-29T00:32:07.685Z,4.76
2022-12-29T00:34:34.244Z,4.75
2022-12-29T00:37:01.427Z,4.75
2022-12-29T00:39:27.988Z,4.73
2022-12-29T00:41:54.958Z,4.75
2022-12-29T00:44:21.411Z,4.72
2022-12-29T00:46:47.970Z,4.72
2022-12-29T00:49:14.998Z,4.71
2022-12-29T00:51:41.547Z,4.68
2022-12-29T00:54:08.490Z,4.69
2022-12-29T00:56:35.053Z,4.68
2022-12-29T00:59:02.977Z,4.65
2022-12-29T01:01:30.702Z,4.66
2022-12-29T01:04:02.000Z,4.66
2022-12-29T01:06:30.529Z,4.65
2022-12-29T01:08:57.121Z,4.64
2022-12-29T01:11:23.660Z,4.61
2022-12-29T01:13:50.151Z,4.60
2022-12-29T01:16:16.710Z,4.59
2022-12-29T01:18:44.770Z,4.50
2022-12-29T01:21:11.460Z,4.54
2022-12-29T01:23:37.932Z,4.52
2022-12-29T01:26:11.665Z,4.50
2022-12-29T01:28:38.155Z,4.48
2022-12-29T01:31:04.836Z,4.47
2022-12-29T01:33:31.490Z,4.46
2022-12-29T01:36:10.196Z,4.44
2022-12-29T01:38:37.915Z,4.43
2022-12-29T01:41:06.176Z,4.42
2022-12-29T01:43:52.336Z,4.34
2022-12-29T01:46:31.539Z,4.38
2022-12-29T01:49:06.003Z,4.38
2022-12-29T01:51:54.760Z,4.38
2022-12-29T01:54:28.927Z,4.39
2022-12-29T01:56:59.053Z,4.41
2022-12-29T01:59:35.693Z,4.41
2022-12-29T02:02:02.760Z,4.42
2022-12-29T02:04:32.339Z,4.43
2022-12-29T02:07:03.867Z,4.45
2022-12-29T02:09:31.458Z,4.45
2022-12-29T02:12:00.377Z,4.46
2022-12-29T02:14:27.096Z,4.47
2022-12-29T02:17:20.067Z,4.48
2022-12-29T02:20:27.933Z,4.47
2022-12-29T02:23:14.913Z,4.49
2022-12-29T02:26:10.853Z,4.49
2022-12-29T02:29:14.755Z,4.51
2022-12-29T02:31:56.885Z,4.53
2022-12-29T02:34:37.657Z,4.52
2022-12-29T02:37:31.858Z,4.56
2022-12-29T02:40:09.239Z,4.60
2022-12-29T02:43:00.404Z,4.60
2022-12-29T02:45:54.988Z,4.63
2022-12-29T02:48:38.864Z,4.68
2022-12-29T02:51:40.919Z,4.70
2022-12-29T02:54:07.893Z,4.75
2022-12-29T02:56:34.852Z,4.77
2022-12-29T02:59:02.429Z,4.80
2022-12-29T03:01:33.263Z,4.83
2022-12-29T03:04:03.001Z,4.86
2022-12-29T03:06:40.207Z,4.88
2022-12-29T03:09:32.817Z,4.88
2022-12-29T03:12:08.785Z,4.92
2022-12-29T03:15:09.657Z,4.92
2022-12-29T03:18:16.541Z,4.92
2022-12-29T03:20:53.463Z,4.96
2022-12-29T03:23:22.376Z,5.00
2022-12-29T03:25:54.834Z,5.02
2022-12-29T03:28:37.129Z,5.03
2022-12-29T03:31:05.548Z,5.05
2022-12-29T03:33:34.162Z,5.07
2022-12-29T03:36:06.670Z,5.08
2022-12-29T03:38:44.929Z,5.11
2022-12-29T03:41:17.379Z,5.14
2022-12-29T03:43:45.286Z,5.15
2022-12-29T03:46:12.005Z,5.16
2022-12-29T03:48:41.175Z,5.19
2022-12-29T03:51:08.948Z,5.21
2022-12-29T03:53:36.037Z,5.25
2022-12-29T03:56:03.099Z,5.31
2022-12-29T03:58:30.199Z,5.36
2022-12-29T04:01:02.444Z,5.42
2022-12-29T04:03:31.903Z,5.49
2022-12-29T04:05:58.670Z,5.53
2022-12-29T04:08:26.192Z,5.58
2022-12-29T04:10:52.821Z,5.64
2022-12-29T04:13:21.857Z,5.68
2022-12-29T04:15:48.414Z,5.73
2022-12-29T04:18:15.046Z,5.79
2022-12-29T04:20:41.824Z,5.85
2022-12-29T04:23:08.975Z,5.90
2022-12-29T04:25:37.409Z,5.95
2022-12-29T04:28:04.173Z,5.99
2022-12-29T04:30:49.136Z,6.04
2022-12-29T04:33:24.857Z,6.09
2022-12-29T04:35:51.565Z,6.11
2022-12-29T04:38:18.609Z,6.13
2022-12-29T04:40:47.254Z,6.18
2022-12-29T04:43:15.226Z,6.15
2022-12-29T04:46:01.991Z,6.21
2022-12-29T04:48:35.384Z,6.27
2022-12-29T04:51:13.015Z,6.32
2022-12-29T04:53:39.804Z,6.39
2022-12-29T04:56:06.434Z,6.44
2022-12-29T04:58:32.942Z,6.50
2022-12-29T05:01:00.353Z,6.53
2022-12-29T05:03:30.025Z,6.57
2022-12-29T05:05:57.276Z,6.61
2022-12-29T05:08:28.019Z,6.66
2022-12-29T05:10:57.095Z,6.69
2022-12-29T05:13:23.659Z,6.72
2022-12-29T05:15:54.299Z,6.76
2022-12-29T05:18:23.056Z,6.80
2022-12-29T05:20:50.208Z,6.82
2022-12-29T05:23:18.430Z,6.85
2022-12-29T05:25:50.031Z,6.87
2022-12-29T05:28:30.223Z,6.92
2022-12-29T05:31:09.499Z,6.93
2022-12-29T05:33:36.251Z,6.94
2022-12-29T05:36:06.066Z,6.97
2022-12-29T05:38:33.525Z,7.01
2022-12-29T05:41:00.310Z,7.04
2022-12-29T05:43:46.997Z,7.06
2022-12-29T05:46:32.356Z,7.09
2022-12-29T05:49:17.069Z,7.11
2022-12-29T05:52:03.912Z,7.11
2022-12-29T05:54:32.610Z,7.13
2022-12-29T05:56:59.341Z,7.13
2022-12-29T05:59:25.865Z,7.15
2022-12-29T06:01:54.036Z,7.17
2022-12-29T06:04:20.800Z,7.18
2022-12-29T06:06:48.108Z,7.18
2022-12-29T06:09:22.863Z,7.17
2022-12-29T06:11:50.025Z,7.15
2022-12-29T06:14:16.472Z,7.17
2022-12-29T06:16:43.101Z,7.14
2022-12-29T06:19:12.059Z,7.17
2022-12-29T06:21:38.644Z,7.19
2022-12-29T06:24:05.830Z,7.18
2022-12-29T06:26:34.798Z,7.19
2022-12-29T06:29:01.602Z,7.20
2022-12-29T06:31:28.197Z,7.19
2022-12-29T06:33:54.876Z,7.22
2022-12-29T06:36:21.518Z,7.23
2022-12-29T06:38:48.056Z,7.24
2022-12-29T06:41:14.696Z,7.24
2022-12-29T06:44:16.325Z,7.23
2022-12-29T06:47:00.451Z,7.25
2022-12-29T06:49:27.035Z,7.25
2022-12-29T06:51:53.633Z,7.21
2022-12-29T06:54:20.077Z,7.23
2022-12-29T06:56:46.706Z,7.22
2022-12-29T06:59:13.279Z,7.24
2022-12-29T07:01:39.754Z,7.26
2022-12-29T07:04:06.275Z,7.25
2022-12-29T07:06:32.807Z,7.27
2022-12-29T07:08:59.378Z,7.30
2022-12-29T07:11:25.924Z,7.31
2022-12-29T07:13:52.423Z,7.32
2022-12-29T07:16:18.934Z,7.33
2022-12-29T07:18:45.445Z,7.33
2022-12-29T07:21:11.963Z,7.34
2022-12-29T07:23:38.415Z,7.37
2022-12-29T07:26:06.518Z,7.37
2022-12-29T07:28:33.132Z,7.39
2022-12-29T07:30:59.956Z,7.34
2022-12-29T07:33:26.764Z,7.38
2022-12-29T07:35:53.209Z,7.37
2022-12-29T07:38:19.676Z,7.36
2022-12-29T07:40:46.183Z,7.39
2022-12-29T07:43:12.596Z,7.41
2022-12-29T07:45:45.097Z,7.43
2022-12-29T07:48:11.639Z,7.43
2022-12-29T07:50:38.315Z,7.47
2022-12-29T07:53:04.765Z,7.49
2022-12-29T07:55:31.239Z,7.53
2022-12-29T07:57:57.673Z,7.55
2022-12-29T08:00:24.182Z,7.58
2022-12-29T08:02:54.747Z,7.61
2022-12-29T08:05:21.255Z,7.61
2022-12-29T08:07:48.153Z,7.61
2022-12-29T08:10:15.150Z,7.60
2022-12-29T08:12:42.415Z,7.57
2022-12-29T08:15:09.823Z,7.56
2022-12-29T08:17:36.375Z,7.53
2022-12-29T08:20:03.167Z,7.51
2022-12-29T08:22:29.608Z,7.50
2022-12-29T08:24:56.110Z,7.48
2022-12-29T08:27:22.565Z,7.47
2022-12-29T08:29:49.835Z,7.49
2022-12-29T08:32:17.009Z,7.47
2022-12-29T08:34:43.488Z,7.49
2022-12-29T08:37:09.980Z,7.51
2022-12-29T08:39:36.617Z,7.50
2022-12-29T08:42:03.206Z,7.53
2022-12-29T08:44:29.698Z,7.55
2022-12-29T08:46:56.176Z,7.59
2022-12-29T08:49:22.615Z,7.60
2022-12-29T08:51:49.164Z,7.63
2022-12-29T08:54:15.589Z,7.66
2022-12-29T08:56:42.186Z,7.73
2022-12-29T08:59:08.935Z,7.76
2022-12-29T09:01:35.841Z,7.79
2022-12-29T09:04:18.515Z,7.87
2022-12-29T09:06:45.836Z,7.94
2022-12-29T09:09:12.533Z,8.03
2022-12-29T09:11:39.419Z,8.12
2022-12-29T09:14:05.903Z,8.17
2022-12-29T09:16:32.587Z,8.22
2022-12-29T09:18:59.112Z,8.29
2022-12-29T09:21:25.769Z,8.38
2022-12-29T09:23:52.204Z,8.42
2022-12-29T09:26:18.655Z,8.47
2022-12-29T09:28:45.168Z,8.53
2022-12-29T09:31:11.863Z,8.54
2022-12-29T09:33:38.363Z,8.56
2022-12-29T09:36:04.848Z,8.59
2022-12-29T09:38:31.771Z,8.60
2022-12-29T09:41:13.455Z,8.62
2022-12-29T09:43:43.062Z,8.65
2022-12-29T09:46:09.607Z,8.67
2022-12-29T09:48:38.696Z,8.70
2022-12-29T09:51:09.876Z,8.75
2022-12-29T09:53:41.396Z,8.79
2022-12-29T09:56:14.333Z,8.83
2022-12-29T09:58:43.068Z,8.90
2022-12-29T10:01:23.074Z,8.97
2022-12-29T10:03:51.608Z,9.08
2022-12-29T10:06:21.266Z,9.18
2022-12-29T10:09:13.981Z,9.32
2022-12-29T10:11:40.510Z,9.45
2022-12-29T10:14:36.279Z,9.61
2022-12-29T10:17:05.270Z,9.82
2022-12-29T10:19:49.835Z,9.96
2022-12-29T10:22:36.500Z,10.12
2022-12-29T10:25:10.475Z,10.28
2022-12-29T10:27:37.619Z,10.37
2022-12-29T10:30:04.271Z,10.47
2022-12-29T10:32:37.269Z,10.58
2022-12-29T10:35:10.856Z,10.70
2022-12-29T10:37:46.202Z,10.68
2022-12-29T10:40:18.565Z,10.81
2022-12-29T10:42:48.125Z,10.89
2022-12-29T10:45:15.889Z,10.95
2022-12-29T10:47:52.749Z,11.01
2022-12-29T10:50:20.036Z,11.07
2022-12-29T10:52:47.766Z,11.12
2022-12-29T10:55:16.564Z,11.14
2022-12-29T10:57:44.945Z,11.21
2022-12-29T11:00:12.836Z,11.21
2022-12-29T11:02:58.078Z,11.25
2022-12-29T11:05:32.102Z,11.24
2022-12-29T11:08:02.231Z,11.30
2022-12-29T11:10:34.465Z,11.38
2022-12-29T11:13:02.698Z,11.46
2022-12-29T11:15:39.025Z,11.51
2022-12-29T11:18:05.469Z,11.57
2022-12-29T11:20:33.990Z,11.61
2022-12-29T11:23:00.604Z,11.68
2022-12-29T11:25:27.842Z,11.72
2022-12-29T11:27:58.234Z,11.76
2022-12-29T11:30:33.753Z,11.83
2022-12-29T11:33:03.850Z,11.92
2022-12-29T11:35:31.929Z,11.97
2022-12-29T11:37:59.478Z,12.05
2022-12-29T11:40:26.963Z,12.11
2022-12-29T11:42:57.574Z,12.16
2022-12-29T11:45:25.677Z,12.19
2022-12-29T11:47:57.547Z,12.24
2022-12-29T11:50:26.220Z,12.32
2022-12-29T11:52:58.951Z,12.39
2022-12-29T11:55:26.370Z,12.44
2022-12-29T11:57:54.775Z,12.50
2022-12-29T12:00:22.737Z,12.55
2022-12-29T12:02:51.894Z,12.59
2022-12-29T12:05:18.484Z,12.67
2022-12-29T12:07:47.083Z,12.72
2022-12-29T12:10:23.879Z,12.79
2022-12-29T12:12:54.076Z,12.84
2022-12-29T12:15:23.794Z,12.87
2022-12-29T12:18:01.163Z,12.87
2022-12-29T12:20:33.568Z,12.88
2022-12-29T12:23:07.864Z,12.86
2022-12-29T12:25:39.314Z,12.86
2022-12-29T12:28:11.438Z,12.86
2022-12-29T12:30:41.773Z,12.84
2022-12-29T12:33:23.195Z,12.83
2022-12-29T12:37:31.313Z,12.79
2022-12-29T12:40:24.658Z,12.76
2022-12-29T12:43:17.717Z,12.75
2022-12-29T12:46:07.062Z,12.78
2022-12-29T12:48:52.213Z,12.80
2022-12-29T12:51:41.997Z,12.82
2022-12-29T12:54:24.453Z,12.83
2022-12-29T12:57:15.689Z,12.78
2022-12-29T12:59:45.051Z,12.86
2022-12-29T13:02:33.032Z,12.94
2022-12-29T13:05:27.174Z,12.97
2022-12-29T13:08:18.399Z,13.05
2022-12-29T13:10:53.986Z,13.12
2022-12-29T13:13:30.281Z,13.16
2022-12-29T13:15:56.919Z,13.26
2022-12-29T13:18:46.874Z,13.29
2022-12-29T13:21:42.495Z,13.34
2022-12-29T13:24:33.461Z,13.38
2022-12-29T13:27:14.337Z,13.43
2022-12-29T13:30:04.863Z,13.45
2022-12-29T13:32:50.361Z,13.48
2022-12-29T13:35:37.729Z,13.48
2022-12-29T13:38:11.640Z,13.49
2022-12-29T13:40:42.705Z,13.46
2022-12-29T13:43:10.256Z,13.45
2022-12-29T13:45:37.286Z,13.42
2022-12-29T13:48:15.765Z,13.43
2022-12-29T13:50:43.982Z,13.43
2022-12-29T13:53:16.613Z,13.42
2022-12-29T13:56:07.128Z,13.41
2022-12-29T13:58:42.602Z,13.39
2022-12-29T14:01:26.058Z,13.40
2022-12-29T14:03:58.129Z,13.39
2022-12-29T14:06:26.363Z,13.39
2022-12-29T14:08:54.282Z,13.28
2022-12-29T14:11:22.329Z,13.25
2022-12-29T14:13:49.206Z,13.21
2022-12-29T14:16:45.224Z,13.22
2022-12-29T14:19:22.235Z,13.22
2022-12-29T14:21:59.279Z,13.18
2022-12-29T14:24:28.911Z,13.14
2022-12-29T14:26:55.438Z,13.11
2022-12-29T14:29:24.531Z,13.05
2022-12-29T14:31:52.168Z,13.01
2022-12-29T14:34:18.618Z,12.96
2022-12-29T14:37:01.095Z,12.88
2022-12-29T14:39:45.188Z,12.83
2022-12-29T14:42:11.767Z,12.80
2022-12-29T14:45:04.255Z,12.75
2022-12-29T14:47:37.499Z,12.70
2022-12-29T14:50:22.357Z,12.65
2022-12-29T14:53:03.017Z,12.63
2022-12-29T14:55:41.755Z,12.59
2022-12-29T14:58:19.290Z,12.54
2022-12-29T15:00:46.587Z,12.50
2022-12-29T15:03:46.543Z,12.41
2022-12-29T15:06:15.765Z,12.35
2022-12-29T15:08:50.800Z,12.25
2022-12-29T15:11:42.812Z,12.16
2022-12-29T15:14:27.758Z,12.05
2022-12-29T15:16:54.338Z,11.97
2022-12-29T15:19:25.443Z,11.89
2022-12-29T15:21:54.002Z,11.79
2022-12-29T15:24:20.591Z,11.71
2022-12-29T15:26:50.306Z,11.64
2022-12-29T15:29:39.653Z,11.52
2022-12-29T15:32:26.765Z,11.43
2022-12-29T15:34:55.942Z,11.34
2022-12-29T15:37:34.210Z,11.26
2022-12-29T15:40:00.819Z,11.19
2022-12-29T15:42:42.549Z,11.10
2022-12-29T15:45:12.927Z,11.03
2022-12-29T15:47:41.327Z,10.96
2022-12-29T15:50:22.495Z,10.87
2022-12-29T15:52:49.272Z,10.81
2022-12-29T15:55:34.030Z,10.74
2022-12-29T15:58:03.269Z,10.67
2022-12-29T16:00:31.963Z,10.61
2022-12-29T16:03:01.873Z,10.51
2022-12-29T16:05:35.715Z,10.46
2022-12-29T16:08:03.785Z,10.42
2022-12-29T16:10:48.498Z,10.29
2022-12-29T16:13:24.329Z,10.30
2022-12-29T16:15:55.889Z,10.28
2022-12-29T16:18:29.023Z,10.23
2022-12-29T16:20:57.546Z,10.21
2022-12-29T16:23:27.645Z,10.17
2022-12-29T16:25:56.377Z,10.15
2022-12-29T16:28:25.904Z,10.13
2022-12-29T16:31:02.740Z,10.11
2022-12-29T16:33:45.406Z,10.09
2022-12-29T16:36:32.208Z,10.06
2022-12-29T16:39:22.622Z,10.06
2022-12-29T16:41:50.020Z,10.08
2022-12-29T16:44:19.141Z,10.07
2022-12-29T16:47:01.229Z,10.07
2022-12-29T16:49:28.607Z,10.08
2022-12-29T16:51:55.936Z,10.10
2022-12-29T16:54:36.272Z,10.12
2022-12-29T16:57:03.482Z,10.13
2022-12-29T16:59:36.369Z,10.14
2022-12-29T17:02:09.264Z,10.16
2022-12-29T17:04:36.032Z,10.21
2022-12-29T17:07:02.740Z,10.21
2022-12-29T17:09:29.651Z,10.23
2022-12-29T17:12:04.988Z,10.26
2022-12-29T17:14:39.465Z,10.25
2022-12-29T17:17:31.105Z,10.27
2022-12-29T17:20:01.745Z,10.25
2022-12-29T17:22:28.762Z,10.25
2022-12-29T17:24:58.623Z,10.23
2022-12-29T17:27:27.158Z,10.20
2022-12-29T17:29:57.276Z,10.15
2022-12-29T17:32:24.118Z,10.10
2022-12-29T17:34:50.641Z,10.04
2022-12-29T17:37:29.472Z,9.97
2022-12-29T17:39:56.253Z,9.91
2022-12-29T17:42:23.069Z,9.87
2022-12-29T17:44:49.833Z,9.80
2022-12-29T17:47:16.686Z,9.75
2022-12-29T17:49:43.928Z,9.69
2022-12-29T17:52:10.889Z,9.63
2022-12-29T17:54:38.157Z,9.59
2022-12-29T17:57:04.757Z,9.55
2022-12-29T17:59:31.335Z,9.51
2022-12-29T18:01:58.790Z,9.48
2022-12-29T18:04:25.443Z,9.43
2022-12-29T18:06:51.884Z,9.41
2022-12-29T18:09:18.543Z,9.37
2022-12-29T18:11:45.444Z,9.32
2022-12-29T18:14:16.553Z,9.28
2022-12-29T18:16:44.012Z,9.25
2022-12-29T18:19:10.507Z,9.21
2022-12-29T18:21:39.631Z,9.19
2022-12-29T18:24:06.564Z,9.17
2022-12-29T18:26:33.033Z,9.14
2022-12-29T18:28:59.785Z,9.12
2022-12-29T18:31:28.962Z,9.09
2022-12-29T18:33:58.054Z,9.06
2022-12-29T18:36:25.439Z,9.02
2022-12-29T18:38:52.476Z,8.99
2022-12-29T18:41:22.379Z,8.96
2022-12-29T18:43:49.399Z,8.95
2022-12-29T18:46:22.316Z,8.93
2022-12-29T18:48:50.802Z,8.92
2022-12-29T18:51:20.163Z,8.90
2022-12-29T18:53:47.444Z,8.91
2022-12-29T18:56:14.308Z,8.88
2022-12-29T18:58:40.969Z,8.89
2022-12-29T19:01:24.449Z,8.89
2022-12-29T19:03:51.591Z,8.87
2022-12-29T19:06:19.579Z,8.87
2022-12-29T19:08:46.182Z,8.85
2022-12-29T19:11:12.741Z,8.86
2022-12-29T19:13:39.449Z,8.86
2022-12-29T19:16:07.410Z,8.85
2022-12-29T19:19:05.722Z,8.87
2022-12-29T19:21:23.120Z,8.87
2022-12-29T19:23:49.710Z,8.87
2022-12-29T19:26:29.395Z,8.87
2022-12-29T19:28:56.057Z,8.89
2022-12-29T19:31:22.995Z,8.89
2022-12-29T19:33:49.679Z,8.90
2022-12-29T19:36:16.762Z,8.91
2022-12-29T19:38:43.427Z,8.93
2022-12-29T19:41:10.038Z,8.94
2022-12-29T19:43:36.637Z,8.95
2022-12-29T19:46:08.450Z,8.91
2022-12-29T19:48:34.977Z,8.93
2022-12-29T19:51:10.766Z,8.93
2022-12-29T19:53:37.671Z,8.94
2022-12-29T19:56:06.575Z,8.93
2022-12-29T19:58:35.059Z,8.93
2022-12-29T20:01:26.294Z,8.94
2022-12-29T20:03:53.124Z,8.96
2022-12-29T20:06:20.271Z,8.99
2022-12-29T20:08:46.908Z,9.03
2022-12-29T20:11:16.787Z,9.04
2022-12-29T20:13:44.179Z,9.09
2022-12-29T20:16:16.475Z,9.11
2022-12-29T20:18:43.742Z,9.14
2022-12-29T20:21:16.252Z,9.18
2022-12-29T20:23:43.896Z,9.22
2022-12-29T20:26:19.938Z,9.25
2022-12-29T20:28:46.648Z,9.28
2022-12-29T20:31:29.633Z,9.33
2022-12-29T20:33:56.316Z,9.38
2022-12-29T20:36:26.924Z,9.40
2022-12-29T20:38:55.206Z,9.42
2022-12-29T20:41:21.981Z,9.45
2022-12-29T20:43:49.010Z,9.46
2022-12-29T20:46:20.486Z,9.46
2022-12-29T20:48:48.590Z,9.46
2022-12-29T20:51:15.162Z,9.47
2022-12-29T20:53:41.779Z,9.47
2022-12-29T20:56:16.820Z,9.48
2022-12-29T20:59:08.607Z,9.49
2022-12-29T21:01:31.044Z,9.49
2022-12-29T21:03:57.795Z,9.50
2022-12-29T21:06:24.335Z,9.52
2022-12-29T21:08:51.835Z,9.53
2022-12-29T21:11:18.975Z,9.53
2022-12-29T21:13:45.513Z,9.55
2022-12-29T21:16:13.957Z,9.56
2022-12-29T21:18:40.700Z,9.57
2022-12-29T21:21:14.692Z,9.56
2022-12-29T21:23:41.195Z,9.57
2022-12-29T21:26:12.055Z,9.56
2022-12-29T21:28:39.321Z,9.57
2022-12-29T21:31:11.654Z,9.55
2022-12-29T21:33:38.172Z,9.56
2022-12-29T21:36:06.588Z,9.56
2022-12-29T21:38:33.313Z,9.55
2022-12-29T21:41:10.707Z,9.54
2022-12-29T21:43:37.656Z,9.54
2022-12-29T21:46:05.188Z,9.55
2022-12-29T21:48:32.174Z,9.55
2022-12-29T21:51:09.856Z,9.55
2022-12-29T21:53:39.468Z,9.55
2022-12-29T21:56:17.780Z,9.57
2022-12-29T21:58:46.745Z,9.57
2022-12-29T22:01:14.365Z,9.58
2022-12-29T22:03:40.949Z,9.56
2022-12-29T22:06:11.243Z,9.56
2022-12-29T22:08:38.841Z,9.56
2022-12-29T22:11:09.097Z,9.56
2022-12-29T22:13:37.852Z,9.57
2022-12-29T22:16:06.564Z,9.57
2022-12-29T22:18:33.899Z,9.57
2022-12-29T22:21:08.432Z,9.55
2022-12-29T22:23:36.953Z,9.56
2022-12-29T22:26:08.297Z,9.55
2022-12-29T22:28:36.362Z,9.55
2022-12-29T22:31:02.947Z,9.47
2022-12-29T22:33:29.605Z,9.52
2022-12-29T22:35:56.176Z,9.52
2022-12-29T22:38:22.702Z,9.51
2022-12-29T22:40:49.260Z,9.50
2022-12-29T22:43:15.863Z,9.48
2022-12-29T22:45:42.445Z,9.46
2022-12-29T22:48:09.182Z,9.46
2022-12-29T22:50:39.111Z,9.44
2022-12-29T22:53:05.590Z,9.45
2022-12-29T22:55:32.069Z,9.44
2022-12-29T22:57:58.567Z,9.43
2022-12-29T23:00:25.036Z,9.42
2022-12-29T23:02:51.769Z,9.43
2022-12-29T23:05:18.466Z,9.42
2022-12-29T23:07:45.018Z,9.42
2022-12-29T23:10:11.533Z,9.42
2022-12-29T23:12:38.079Z,9.41
2022-12-29T23:15:05.197Z,9.42
2022-12-29T23:17:31.712Z,9.40
2022-12-29T23:19:58.196Z,9.41
2022-12-29T23:22:24.797Z,9.40
2022-12-29T23:24:51.315Z,9.41
2022-12-29T23:27:17.884Z,9.41
2022-12-29T23:29:44.369Z,9.42
2022-12-29T23:32:11.011Z,9.43
2022-12-29T23:34:37.548Z,9.44
2022-12-29T23:37:04.077Z,9.46
2022-12-29T23:39:30.609Z,9.47
2022-12-29T23:41:57.651Z,9.49
2022-12-29T23:44:24.299Z,9.50
2022-12-29T23:46:50.960Z,9.50
2022-12-29T23:49:17.581Z,9.52
2022-12-29T23:51:44.228Z,9.54
2022-12-29T23:54:10.738Z,9.55
2022-12-29T23:56:37.359Z,9.56
2022-12-29T23:59:05.343Z,9.57
